sensor_id;sensor_type;location;lat;lon;timestamp;P1;durP1;ratioP1;P2;durP2;ratioP2
18716;SDS011;9487;50.892;6.906;2023-07-02T00:02:16;4.63;;;3.70;;
18716;SDS011;9487;50.892;6.906;2023-07-02T00:04:44;5.27;;;3.50;;
18716;SDS011;9487;50.892;6.906;2023-07-02T00:07:11;4.60;;;3.60;;
18716;SDS011;9487;50.892;6.906;2023-07-02T00:09:40;6.77;;;3.53;;
18716;SDS011;9487;50.892;6.906;2023-07-02T00:12:08;7.00;;;3.70;;
18716;SDS011;9487;50.892;6.906;2023-07-02T00:14:35;6.53;;;3.57;;
18716;SDS011;9487;50.892;6.906;2023-07-02T00:17:03;5.57;;;3.50;;
18716;SDS011;9487;50.892;6.906;2023-07-02T00:19:31;5.10;;;3.60;;
18716;SDS011;9487;50.892;6.906;2023-07-02T00:21:58;5.37;;;3.90;;
18716;SDS011;9487;50.892;6.906;2023-07-02T00:24:25;6.53;;;3.67;;
18716;SDS011;9487;50.892;6.906;2023-07-02T00:26:54;5.93;;;3.83;;
18716;SDS011;9487;50.892;6.906;2023-07-02T00:29:21;7.17;;;3.80;;
18716;SDS011;9487;50.892;6.906;2023-07-02T00:31:48;6.90;;;4.13;;
18716;SDS011;9487;50.892;6.906;2023-07-02T00:34:15;5.07;;;3.93;;
18716;SDS011;9487;50.892;6.906;2023-07-02T00:36:42;7.67;;;4.20;;
18716;SDS011;9487;50.892;6.906;2023-07-02T00:39:09;5.60;;;4.20;;
18716;SDS011;9487;50.892;6.906;2023-07-02T00:41:37;6.03;;;4.73;;
18716;SDS011;9487;50.892;6.906;2023-07-02T00:44:06;7.70;;;4.10;;
18716;SDS011;9487;50.892;6.906;2023-07-02T00:46:34;5.87;;;3.87;;
18716;SDS011;9487;50.892;6.906;2023-07-02T00:49:01;8.63;;;4.53;;
18716;SDS011;9487;50.892;6.906;2023-07-02T00:51:31;7.43;;;3.80;;
18716;SDS011;9487;50.892;6.906;2023-07-02T00:53:58;6.10;;;4.00;;
18716;SDS011;9487;50.892;6.906;2023-07-02T00:56:26;6.17;;;4.33;;
18716;SDS011;9487;50.892;6.906;2023-07-02T00:58:56;6.60;;;4.10;;
18716;SDS011;9487;50.892;6.906;2023-07-02T01:01:25;8.47;;;4.57;;
18716;SDS011;9487;50.892;6.906;2023-07-02T01:03:56;7.47;;;4.53;;
18716;SDS011;9487;50.892;6.906;2023-07-02T01:06:24;8.03;;;4.70;;
18716;SDS011;9487;50.892;6.906;2023-07-02T01:08:53;7.37;;;4.80;;
18716;SDS011;9487;50.892;6.906;2023-07-02T01:11:22;7.30;;;5.73;;
18716;SDS011;9487;50.892;6.906;2023-07-02T01:13:53;11.57;;;5.37;;
18716;SDS011;9487;50.892;6.906;2023-07-02T01:16:27;9.83;;;5.57;;
18716;SDS011;9487;50.892;6.906;2023-07-02T01:18:58;7.17;;;5.50;;
18716;SDS011;9487;50.892;6.906;2023-07-02T01:21:30;13.23;;;6.63;;
18716;SDS011;9487;50.892;6.906;2023-07-02T01:23:58;10.00;;;6.23;;
18716;SDS011;9487;50.892;6.906;2023-07-02T01:26:27;12.93;;;7.00;;
18716;SDS011;9487;50.892;6.906;2023-07-02T01:28:56;10.30;;;6.40;;
18716;SDS011;9487;50.892;6.906;2023-07-02T01:31:23;10.07;;;6.13;;
18716;SDS011;9487;50.892;6.906;2023-07-02T01:33:51;13.53;;;7.37;;
18716;SDS011;9487;50.892;6.906;2023-07-02T01:36:19;11.93;;;7.10;;
18716;SDS011;9487;50.892;6.906;2023-07-02T01:38:49;10.27;;;7.37;;
18716;SDS011;9487;50.892;6.906;2023-07-02T01:41:16;12.57;;;8.67;;
18716;SDS011;9487;50.892;6.906;2023-07-02T01:43:43;11.70;;;7.87;;
18716;SDS011;9487;50.892;6.906;2023-07-02T01:46:12;17.47;;;9.03;;
18716;SDS011;9487;50.892;6.906;2023-07-02T01:48:40;14.33;;;8.07;;
18716;SDS011;9487;50.892;6.906;2023-07-02T01:51:07;11.80;;;8.73;;
18716;SDS011;9487;50.892;6.906;2023-07-02T01:53:33;12.37;;;8.83;;
18716;SDS011;9487;50.892;6.906;2023-07-02T01:56:03;13.67;;;8.70;;
18716;SDS011;9487;50.892;6.906;2023-07-02T01:58:30;11.27;;;8.60;;
18716;SDS011;9487;50.892;6.906;2023-07-02T02:00:59;13.87;;;9.40;;
18716;SDS011;9487;50.892;6.906;2023-07-02T02:03:26;12.10;;;9.10;;
18716;SDS011;9487;50.892;6.906;2023-07-02T02:05:53;13.47;;;9.43;;
18716;SDS011;9487;50.892;6.906;2023-07-02T02:08:20;15.07;;;9.60;;
18716;SDS011;9487;50.892;6.906;2023-07-02T02:10:47;17.13;;;10.37;;
18716;SDS011;9487;50.892;6.906;2023-07-02T02:13:15;14.87;;;10.07;;
18716;SDS011;9487;50.892;6.906;2023-07-02T02:15:42;17.83;;;10.17;;
18716;SDS011;9487;50.892;6.906;2023-07-02T02:18:10;17.13;;;10.17;;
18716;SDS011;9487;50.892;6.906;2023-07-02T02:20:36;16.40;;;11.20;;
18716;SDS011;9487;50.892;6.906;2023-07-02T02:23:03;14.80;;;10.50;;
18716;SDS011;9487;50.892;6.906;2023-07-02T02:25:30;18.33;;;11.33;;
18716;SDS011;9487;50.892;6.906;2023-07-02T02:27:58;19.40;;;10.87;;
18716;SDS011;9487;50.892;6.906;2023-07-02T02:30:26;16.07;;;10.80;;
18716;SDS011;9487;50.892;6.906;2023-07-02T02:32:53;14.57;;;10.50;;
18716;SDS011;9487;50.892;6.906;2023-07-02T02:35:20;19.77;;;11.33;;
18716;SDS011;9487;50.892;6.906;2023-07-02T02:37:48;14.43;;;10.80;;
18716;SDS011;9487;50.892;6.906;2023-07-02T02:40:15;15.60;;;10.53;;
18716;SDS011;9487;50.892;6.906;2023-07-02T02:42:42;18.70;;;12.00;;
18716;SDS011;9487;50.892;6.906;2023-07-02T02:45:09;15.17;;;10.73;;
18716;SDS011;9487;50.892;6.906;2023-07-02T02:47:38;15.90;;;11.13;;
18716;SDS011;9487;50.892;6.906;2023-07-02T02:50:05;18.77;;;11.97;;
18716;SDS011;9487;50.892;6.906;2023-07-02T02:52:34;21.37;;;11.73;;
18716;SDS011;9487;50.892;6.906;2023-07-02T02:55:03;19.80;;;11.63;;
18716;SDS011;9487;50.892;6.906;2023-07-02T02:57:31;19.50;;;12.13;;
18716;SDS011;9487;50.892;6.906;2023-07-02T02:59:59;19.13;;;12.27;;
18716;SDS011;9487;50.892;6.906;2023-07-02T03:02:26;18.63;;;12.00;;
18716;SDS011;9487;50.892;6.906;2023-07-02T03:04:54;23.40;;;12.90;;
18716;SDS011;9487;50.892;6.906;2023-07-02T03:07:22;16.53;;;11.30;;
18716;SDS011;9487;50.892;6.906;2023-07-02T03:09:52;18.97;;;13.27;;
18716;SDS011;9487;50.892;6.906;2023-07-02T03:12:21;17.53;;;11.83;;
18716;SDS011;9487;50.892;6.906;2023-07-02T03:14:48;17.60;;;12.30;;
18716;SDS011;9487;50.892;6.906;2023-07-02T03:17:18;18.90;;;12.93;;
18716;SDS011;9487;50.892;6.906;2023-07-02T03:19:44;19.43;;;12.37;;
18716;SDS011;9487;50.892;6.906;2023-07-02T03:22:13;17.13;;;12.17;;
18716;SDS011;9487;50.892;6.906;2023-07-02T03:24:40;20.77;;;13.27;;
18716;SDS011;9487;50.892;6.906;2023-07-02T03:27:07;20.23;;;12.33;;
18716;SDS011;9487;50.892;6.906;2023-07-02T03:29:35;18.83;;;13.13;;
18716;SDS011;9487;50.892;6.906;2023-07-02T03:32:03;20.67;;;13.33;;
18716;SDS011;9487;50.892;6.906;2023-07-02T03:34:31;15.33;;;12.47;;
18716;SDS011;9487;50.892;6.906;2023-07-02T03:37:00;18.70;;;12.47;;
18716;SDS011;9487;50.892;6.906;2023-07-02T03:39:34;19.30;;;12.77;;
18716;SDS011;9487;50.892;6.906;2023-07-02T03:42:01;20.27;;;13.00;;
18716;SDS011;9487;50.892;6.906;2023-07-02T03:44:28;18.50;;;13.23;;
18716;SDS011;9487;50.892;6.906;2023-07-02T03:46:55;17.80;;;13.17;;
18716;SDS011;9487;50.892;6.906;2023-07-02T03:49:23;20.70;;;12.97;;
18716;SDS011;9487;50.892;6.906;2023-07-02T03:51:50;20.77;;;13.37;;
18716;SDS011;9487;50.892;6.906;2023-07-02T03:54:17;20.07;;;13.40;;
18716;SDS011;9487;50.892;6.906;2023-07-02T03:56:46;20.37;;;14.93;;
18716;SDS011;9487;50.892;6.906;2023-07-02T03:59:13;23.33;;;14.63;;
18716;SDS011;9487;50.892;6.906;2023-07-02T04:01:40;19.17;;;13.67;;
18716;SDS011;9487;50.892;6.906;2023-07-02T04:04:07;24.23;;;15.20;;
18716;SDS011;9487;50.892;6.906;2023-07-02T04:06:34;19.43;;;14.03;;
18716;SDS011;9487;50.892;6.906;2023-07-02T04:09:01;20.90;;;13.83;;
18716;SDS011;9487;50.892;6.906;2023-07-02T04:11:29;23.87;;;14.83;;
18716;SDS011;9487;50.892;6.906;2023-07-02T04:14:00;22.97;;;15.37;;
18716;SDS011;9487;50.892;6.906;2023-07-02T04:16:27;24.10;;;14.60;;
18716;SDS011;9487;50.892;6.906;2023-07-02T04:18:54;21.60;;;14.83;;
18716;SDS011;9487;50.892;6.906;2023-07-02T04:21:22;27.00;;;15.90;;
18716;SDS011;9487;50.892;6.906;2023-07-02T04:23:48;24.37;;;15.37;;
18716;SDS011;9487;50.892;6.906;2023-07-02T04:26:15;23.93;;;15.67;;
18716;SDS011;9487;50.892;6.906;2023-07-02T04:28:43;24.53;;;15.23;;
18716;SDS011;9487;50.892;6.906;2023-07-02T04:31:12;23.43;;;16.57;;
18716;SDS011;9487;50.892;6.906;2023-07-02T04:33:39;25.73;;;16.23;;
18716;SDS011;9487;50.892;6.906;2023-07-02T04:36:07;25.30;;;16.90;;
18716;SDS011;9487;50.892;6.906;2023-07-02T04:38:34;25.03;;;16.00;;
18716;SDS011;9487;50.892;6.906;2023-07-02T04:41:04;26.77;;;17.07;;
18716;SDS011;9487;50.892;6.906;2023-07-02T04:43:32;27.17;;;18.47;;
18716;SDS011;9487;50.892;6.906;2023-07-02T04:45:59;27.30;;;16.87;;
18716;SDS011;9487;50.892;6.906;2023-07-02T04:48:28;25.13;;;17.23;;
18716;SDS011;9487;50.892;6.906;2023-07-02T04:50:55;25.10;;;16.47;;
18716;SDS011;9487;50.892;6.906;2023-07-02T04:53:22;25.40;;;17.37;;
18716;SDS011;9487;50.892;6.906;2023-07-02T04:55:49;26.47;;;17.53;;
18716;SDS011;9487;50.892;6.906;2023-07-02T04:58:16;21.63;;;15.90;;
18716;SDS011;9487;50.892;6.906;2023-07-02T05:00:43;28.77;;;19.17;;
18716;SDS011;9487;50.892;6.906;2023-07-02T05:03:11;27.37;;;17.23;;
18716;SDS011;9487;50.892;6.906;2023-07-02T05:05:40;24.23;;;17.67;;
18716;SDS011;9487;50.892;6.906;2023-07-02T05:08:06;31.47;;;18.07;;
18716;SDS011;9487;50.892;6.906;2023-07-02T05:10:33;28.87;;;19.17;;
18716;SDS011;9487;50.892;6.906;2023-07-02T05:13:00;27.07;;;18.63;;
18716;SDS011;9487;50.892;6.906;2023-07-02T05:15:27;28.60;;;18.10;;
18716;SDS011;9487;50.892;6.906;2023-07-02T05:17:55;27.23;;;18.60;;
18716;SDS011;9487;50.892;6.906;2023-07-02T05:20:22;25.00;;;18.33;;
18716;SDS011;9487;50.892;6.906;2023-07-02T05:22:51;30.57;;;18.60;;
18716;SDS011;9487;50.892;6.906;2023-07-02T05:25:18;27.50;;;18.00;;
18716;SDS011;9487;50.892;6.906;2023-07-02T05:27:45;31.00;;;20.63;;
18716;SDS011;9487;50.892;6.906;2023-07-02T05:30:12;32.67;;;18.97;;
18716;SDS011;9487;50.892;6.906;2023-07-02T05:32:39;30.87;;;19.63;;
18716;SDS011;9487;50.892;6.906;2023-07-02T05:35:08;31.47;;;19.10;;
18716;SDS011;9487;50.892;6.906;2023-07-02T05:37:35;30.00;;;20.13;;
18716;SDS011;9487;50.892;6.906;2023-07-02T05:40:05;28.03;;;19.03;;
18716;SDS011;9487;50.892;6.906;2023-07-02T05:42:34;29.33;;;19.73;;
18716;SDS011;9487;50.892;6.906;2023-07-02T05:45:03;29.83;;;19.23;;
18716;SDS011;9487;50.892;6.906;2023-07-02T05:47:33;29.70;;;18.83;;
18716;SDS011;9487;50.892;6.906;2023-07-02T05:50:00;30.97;;;18.63;;
18716;SDS011;9487;50.892;6.906;2023-07-02T05:52:27;26.90;;;18.90;;
18716;SDS011;9487;50.892;6.906;2023-07-02T05:54:54;26.37;;;18.43;;
18716;SDS011;9487;50.892;6.906;2023-07-02T05:57:22;27.63;;;19.73;;
18716;SDS011;9487;50.892;6.906;2023-07-02T05:59:49;30.27;;;19.40;;
18716;SDS011;9487;50.892;6.906;2023-07-02T06:02:17;28.17;;;19.10;;
18716;SDS011;9487;50.892;6.906;2023-07-02T06:04:44;30.33;;;19.80;;
18716;SDS011;9487;50.892;6.906;2023-07-02T06:07:11;30.40;;;20.67;;
18716;SDS011;9487;50.892;6.906;2023-07-02T06:09:38;31.30;;;20.23;;
18716;SDS011;9487;50.892;6.906;2023-07-02T06:12:06;30.60;;;18.73;;
18716;SDS011;9487;50.892;6.906;2023-07-02T06:14:34;27.47;;;20.17;;
18716;SDS011;9487;50.892;6.906;2023-07-02T06:17:03;29.70;;;19.87;;
18716;SDS011;9487;50.892;6.906;2023-07-02T06:19:32;27.83;;;19.80;;
18716;SDS011;9487;50.892;6.906;2023-07-02T06:22:00;30.67;;;19.30;;
18716;SDS011;9487;50.892;6.906;2023-07-02T06:24:27;29.43;;;19.03;;
18716;SDS011;9487;50.892;6.906;2023-07-02T06:26:54;32.30;;;19.63;;
18716;SDS011;9487;50.892;6.906;2023-07-02T06:29:21;32.07;;;19.13;;
18716;SDS011;9487;50.892;6.906;2023-07-02T06:31:51;29.90;;;19.90;;
18716;SDS011;9487;50.892;6.906;2023-07-02T06:34:19;29.07;;;19.90;;
18716;SDS011;9487;50.892;6.906;2023-07-02T06:36:47;29.90;;;19.77;;
18716;SDS011;9487;50.892;6.906;2023-07-02T06:39:14;27.97;;;19.53;;
18716;SDS011;9487;50.892;6.906;2023-07-02T06:41:44;28.30;;;20.10;;
18716;SDS011;9487;50.892;6.906;2023-07-02T06:44:11;27.27;;;19.27;;
18716;SDS011;9487;50.892;6.906;2023-07-02T06:46:38;34.07;;;19.70;;
18716;SDS011;9487;50.892;6.906;2023-07-02T06:49:06;29.57;;;19.57;;
18716;SDS011;9487;50.892;6.906;2023-07-02T06:51:34;31.03;;;19.43;;
18716;SDS011;9487;50.892;6.906;2023-07-02T06:54:02;30.57;;;19.63;;
18716;SDS011;9487;50.892;6.906;2023-07-02T06:56:31;29.00;;;19.53;;
18716;SDS011;9487;50.892;6.906;2023-07-02T06:58:59;29.87;;;20.67;;
18716;SDS011;9487;50.892;6.906;2023-07-02T07:01:26;29.10;;;19.77;;
18716;SDS011;9487;50.892;6.906;2023-07-02T07:03:53;30.27;;;20.83;;
18716;SDS011;9487;50.892;6.906;2023-07-02T07:06:21;31.50;;;20.47;;
18716;SDS011;9487;50.892;6.906;2023-07-02T07:08:48;29.23;;;18.73;;
18716;SDS011;9487;50.892;6.906;2023-07-02T07:11:15;24.17;;;16.23;;
18716;SDS011;9487;50.892;6.906;2023-07-02T07:13:41;27.57;;;18.23;;
18716;SDS011;9487;50.892;6.906;2023-07-02T07:16:09;28.17;;;19.33;;
18716;SDS011;9487;50.892;6.906;2023-07-02T07:18:36;29.20;;;19.10;;
18716;SDS011;9487;50.892;6.906;2023-07-02T07:21:04;29.07;;;18.70;;
18716;SDS011;9487;50.892;6.906;2023-07-02T07:23:33;32.47;;;19.80;;
18716;SDS011;9487;50.892;6.906;2023-07-02T07:25:59;24.97;;;17.43;;
18716;SDS011;9487;50.892;6.906;2023-07-02T07:28:26;33.43;;;20.40;;
18716;SDS011;9487;50.892;6.906;2023-07-02T07:30:56;29.73;;;18.50;;
18716;SDS011;9487;50.892;6.906;2023-07-02T07:33:23;29.07;;;18.23;;
18716;SDS011;9487;50.892;6.906;2023-07-02T07:35:50;27.60;;;18.47;;
18716;SDS011;9487;50.892;6.906;2023-07-02T07:38:17;26.33;;;18.07;;
18716;SDS011;9487;50.892;6.906;2023-07-02T07:40:46;28.97;;;18.33;;
18716;SDS011;9487;50.892;6.906;2023-07-02T07:43:13;25.53;;;16.97;;
18716;SDS011;9487;50.892;6.906;2023-07-02T07:45:40;26.30;;;16.17;;
18716;SDS011;9487;50.892;6.906;2023-07-02T07:48:07;27.80;;;16.10;;
18716;SDS011;9487;50.892;6.906;2023-07-02T07:50:34;23.73;;;15.97;;
18716;SDS011;9487;50.892;6.906;2023-07-02T07:53:01;25.07;;;16.00;;
18716;SDS011;9487;50.892;6.906;2023-07-02T07:55:28;28.67;;;17.20;;
18716;SDS011;9487;50.892;6.906;2023-07-02T07:57:59;26.27;;;16.63;;
18716;SDS011;9487;50.892;6.906;2023-07-02T08:00:26;23.77;;;15.77;;
18716;SDS011;9487;50.892;6.906;2023-07-02T08:02:53;25.70;;;15.93;;
18716;SDS011;9487;50.892;6.906;2023-07-02T08:05:20;24.23;;;17.38;;
18716;SDS011;9487;50.892;6.906;2023-07-02T08:07:48;22.60;;;15.00;;
18716;SDS011;9487;50.892;6.906;2023-07-02T08:10:15;26.23;;;16.63;;
18716;SDS011;9487;50.892;6.906;2023-07-02T08:12:42;24.70;;;15.57;;
18716;SDS011;9487;50.892;6.906;2023-07-02T08:15:10;23.37;;;15.27;;
18716;SDS011;9487;50.892;6.906;2023-07-02T08:17:37;20.97;;;14.50;;
18716;SDS011;9487;50.892;6.906;2023-07-02T08:20:05;24.77;;;14.43;;
18716;SDS011;9487;50.892;6.906;2023-07-02T08:22:34;26.07;;;14.80;;
18716;SDS011;9487;50.892;6.906;2023-07-02T08:25:05;24.00;;;15.40;;
18716;SDS011;9487;50.892;6.906;2023-07-02T08:27:33;22.60;;;15.27;;
18716;SDS011;9487;50.892;6.906;2023-07-02T08:30:00;23.10;;;16.43;;
18716;SDS011;9487;50.892;6.906;2023-07-02T08:32:30;26.67;;;16.77;;
18716;SDS011;9487;50.892;6.906;2023-07-02T08:34:58;26.40;;;16.97;;
18716;SDS011;9487;50.892;6.906;2023-07-02T08:37:24;24.90;;;15.90;;
18716;SDS011;9487;50.892;6.906;2023-07-02T08:39:52;24.03;;;16.67;;
18716;SDS011;9487;50.892;6.906;2023-07-02T08:42:19;26.30;;;17.37;;
18716;SDS011;9487;50.892;6.906;2023-07-02T08:44:47;25.40;;;17.50;;
18716;SDS011;9487;50.892;6.906;2023-07-02T08:47:14;27.93;;;18.00;;
18716;SDS011;9487;50.892;6.906;2023-07-02T08:49:44;29.20;;;18.23;;
18716;SDS011;9487;50.892;6.906;2023-07-02T08:52:11;27.93;;;17.67;;
18716;SDS011;9487;50.892;6.906;2023-07-02T08:54:38;25.43;;;16.40;;
18716;SDS011;9487;50.892;6.906;2023-07-02T08:57:06;23.57;;;16.23;;
18716;SDS011;9487;50.892;6.906;2023-07-02T08:59:35;25.00;;;15.67;;
18716;SDS011;9487;50.892;6.906;2023-07-02T09:02:03;25.67;;;14.63;;
18716;SDS011;9487;50.892;6.906;2023-07-02T09:04:30;24.70;;;14.37;;
18716;SDS011;9487;50.892;6.906;2023-07-02T09:07:06;24.53;;;15.30;;
18716;SDS011;9487;50.892;6.906;2023-07-02T09:09:43;26.90;;;15.60;;
18716;SDS011;9487;50.892;6.906;2023-07-02T09:12:21;23.37;;;14.70;;
18716;SDS011;9487;50.892;6.906;2023-07-02T09:14:53;22.30;;;15.80;;
18716;SDS011;9487;50.892;6.906;2023-07-02T09:17:26;24.97;;;15.23;;
18716;SDS011;9487;50.892;6.906;2023-07-02T09:19:57;23.33;;;16.47;;
18716;SDS011;9487;50.892;6.906;2023-07-02T09:22:29;28.43;;;16.30;;
18716;SDS011;9487;50.892;6.906;2023-07-02T09:24:56;27.77;;;15.63;;
18716;SDS011;9487;50.892;6.906;2023-07-02T09:27:33;21.80;;;15.10;;
18716;SDS011;9487;50.892;6.906;2023-07-02T09:30:05;23.43;;;15.93;;
18716;SDS011;9487;50.892;6.906;2023-07-02T09:32:33;24.47;;;17.10;;
18716;SDS011;9487;50.892;6.906;2023-07-02T09:35:00;27.63;;;18.00;;
18716;SDS011;9487;50.892;6.906;2023-07-02T09:37:29;27.10;;;17.13;;
18716;SDS011;9487;50.892;6.906;2023-07-02T09:39:56;25.40;;;16.93;;
18716;SDS011;9487;50.892;6.906;2023-07-02T09:42:24;22.67;;;16.20;;
18716;SDS011;9487;50.892;6.906;2023-07-02T09:44:52;25.57;;;16.10;;
18716;SDS011;9487;50.892;6.906;2023-07-02T09:47:21;23.63;;;16.83;;
18716;SDS011;9487;50.892;6.906;2023-07-02T09:49:52;24.27;;;16.57;;
18716;SDS011;9487;50.892;6.906;2023-07-02T09:52:21;22.13;;;15.97;;
18716;SDS011;9487;50.892;6.906;2023-07-02T09:54:50;25.53;;;15.87;;
18716;SDS011;9487;50.892;6.906;2023-07-02T09:57:17;23.30;;;15.97;;
18716;SDS011;9487;50.892;6.906;2023-07-02T09:59:44;19.97;;;15.57;;
18716;SDS011;9487;50.892;6.906;2023-07-02T10:02:12;22.10;;;16.17;;
18716;SDS011;9487;50.892;6.906;2023-07-02T10:04:41;21.27;;;15.70;;
18716;SDS011;9487;50.892;6.906;2023-07-02T10:07:09;22.10;;;15.33;;
18716;SDS011;9487;50.892;6.906;2023-07-02T10:09:37;26.17;;;17.10;;
18716;SDS011;9487;50.892;6.906;2023-07-02T10:12:16;23.13;;;16.83;;
18716;SDS011;9487;50.892;6.906;2023-07-02T10:14:44;25.13;;;16.77;;
18716;SDS011;9487;50.892;6.906;2023-07-02T10:17:22;26.60;;;16.93;;
18716;SDS011;9487;50.892;6.906;2023-07-02T10:19:54;22.90;;;15.83;;
18716;SDS011;9487;50.892;6.906;2023-07-02T10:22:21;23.10;;;15.13;;
18716;SDS011;9487;50.892;6.906;2023-07-02T10:24:52;22.30;;;15.63;;
18716;SDS011;9487;50.892;6.906;2023-07-02T10:27:33;21.17;;;14.70;;
18716;SDS011;9487;50.892;6.906;2023-07-02T10:30:02;23.47;;;14.93;;
18716;SDS011;9487;50.892;6.906;2023-07-02T10:32:30;21.20;;;14.87;;
18716;SDS011;9487;50.892;6.906;2023-07-02T10:34:59;20.13;;;14.40;;
18716;SDS011;9487;50.892;6.906;2023-07-02T10:37:34;19.90;;;13.83;;
18716;SDS011;9487;50.892;6.906;2023-07-02T10:40:03;22.77;;;14.33;;
18716;SDS011;9487;50.892;6.906;2023-07-02T10:42:31;19.90;;;13.13;;
18716;SDS011;9487;50.892;6.906;2023-07-02T10:45:00;19.00;;;13.30;;
18716;SDS011;9487;50.892;6.906;2023-07-02T10:47:27;19.57;;;13.03;;
18716;SDS011;9487;50.892;6.906;2023-07-02T10:49:55;22.27;;;13.93;;
18716;SDS011;9487;50.892;6.906;2023-07-02T10:52:22;18.30;;;13.23;;
18716;SDS011;9487;50.892;6.906;2023-07-02T10:54:49;20.73;;;12.40;;
18716;SDS011;9487;50.892;6.906;2023-07-02T10:57:17;18.53;;;14.30;;
18716;SDS011;9487;50.892;6.906;2023-07-02T10:59:47;20.70;;;14.77;;
18716;SDS011;9487;50.892;6.906;2023-07-02T11:02:14;20.53;;;14.63;;
18716;SDS011;9487;50.892;6.906;2023-07-02T11:04:41;18.43;;;13.63;;
18716;SDS011;9487;50.892;6.906;2023-07-02T11:07:09;18.43;;;13.53;;
18716;SDS011;9487;50.892;6.906;2023-07-02T11:09:37;19.87;;;13.47;;
18716;SDS011;9487;50.892;6.906;2023-07-02T11:12:04;21.57;;;13.90;;
18716;SDS011;9487;50.892;6.906;2023-07-02T11:14:33;21.67;;;14.03;;
18716;SDS011;9487;50.892;6.906;2023-07-02T11:17:03;22.93;;;14.40;;
18716;SDS011;9487;50.892;6.906;2023-07-02T11:19:32;22.77;;;13.87;;
18716;SDS011;9487;50.892;6.906;2023-07-02T11:21:59;20.53;;;13.83;;
18716;SDS011;9487;50.892;6.906;2023-07-02T11:24:30;21.67;;;13.53;;
18716;SDS011;9487;50.892;6.906;2023-07-02T11:26:58;17.73;;;13.90;;
18716;SDS011;9487;50.892;6.906;2023-07-02T11:29:28;24.60;;;15.00;;
18716;SDS011;9487;50.892;6.906;2023-07-02T11:31:55;19.07;;;14.70;;
18716;SDS011;9487;50.892;6.906;2023-07-02T11:34:34;19.17;;;14.20;;
18716;SDS011;9487;50.892;6.906;2023-07-02T11:37:02;19.83;;;13.53;;
18716;SDS011;9487;50.892;6.906;2023-07-02T11:39:29;19.80;;;13.73;;
18716;SDS011;9487;50.892;6.906;2023-07-02T11:41:56;21.40;;;13.30;;
18716;SDS011;9487;50.892;6.906;2023-07-02T11:44:23;18.90;;;13.60;;
18716;SDS011;9487;50.892;6.906;2023-07-02T11:46:50;20.17;;;13.27;;
18716;SDS011;9487;50.892;6.906;2023-07-02T11:49:19;19.77;;;12.90;;
18716;SDS011;9487;50.892;6.906;2023-07-02T11:51:46;16.90;;;12.50;;
18716;SDS011;9487;50.892;6.906;2023-07-02T11:54:14;17.93;;;12.67;;
18716;SDS011;9487;50.892;6.906;2023-07-02T11:56:42;19.40;;;13.03;;
18716;SDS011;9487;50.892;6.906;2023-07-02T11:59:09;19.20;;;13.23;;
18716;SDS011;9487;50.892;6.906;2023-07-02T12:01:37;18.70;;;12.97;;
18716;SDS011;9487;50.892;6.906;2023-07-02T12:04:04;19.90;;;12.73;;
18716;SDS011;9487;50.892;6.906;2023-07-02T12:06:34;17.93;;;12.77;;
18716;SDS011;9487;50.892;6.906;2023-07-02T12:09:00;18.93;;;12.73;;
18716;SDS011;9487;50.892;6.906;2023-07-02T12:11:27;19.53;;;13.07;;
18716;SDS011;9487;50.892;6.906;2023-07-02T12:13:54;18.40;;;12.90;;
18716;SDS011;9487;50.892;6.906;2023-07-02T12:16:21;19.20;;;12.67;;
18716;SDS011;9487;50.892;6.906;2023-07-02T12:18:48;17.43;;;11.97;;
18716;SDS011;9487;50.892;6.906;2023-07-02T12:21:15;16.03;;;11.53;;
18716;SDS011;9487;50.892;6.906;2023-07-02T12:23:45;16.20;;;11.10;;
18716;SDS011;9487;50.892;6.906;2023-07-02T12:26:12;18.63;;;11.97;;
18716;SDS011;9487;50.892;6.906;2023-07-02T12:28:38;15.47;;;11.20;;
18716;SDS011;9487;50.892;6.906;2023-07-02T12:31:05;18.53;;;11.50;;
18716;SDS011;9487;50.892;6.906;2023-07-02T12:33:33;19.00;;;11.47;;
18716;SDS011;9487;50.892;6.906;2023-07-02T12:36:00;17.57;;;11.40;;
18716;SDS011;9487;50.892;6.906;2023-07-02T12:38:28;16.93;;;11.77;;
18716;SDS011;9487;50.892;6.906;2023-07-02T12:40:56;16.73;;;11.37;;
18716;SDS011;9487;50.892;6.906;2023-07-02T12:43:23;17.73;;;11.93;;
18716;SDS011;9487;50.892;6.906;2023-07-02T12:45:50;17.83;;;11.57;;
18716;SDS011;9487;50.892;6.906;2023-07-02T12:48:17;17.57;;;11.87;;
18716;SDS011;9487;50.892;6.906;2023-07-02T12:50:52;20.17;;;12.57;;
18716;SDS011;9487;50.892;6.906;2023-07-02T12:53:20;19.30;;;12.13;;
18716;SDS011;9487;50.892;6.906;2023-07-02T12:55:47;17.17;;;11.87;;
18716;SDS011;9487;50.892;6.906;2023-07-02T12:58:16;18.17;;;11.97;;
18716;SDS011;9487;50.892;6.906;2023-07-02T13:00:43;17.67;;;12.27;;
18716;SDS011;9487;50.892;6.906;2023-07-02T13:03:11;16.90;;;12.10;;
18716;SDS011;9487;50.892;6.906;2023-07-02T13:05:39;17.77;;;12.40;;
18716;SDS011;9487;50.892;6.906;2023-07-02T13:08:06;15.80;;;11.53;;
18716;SDS011;9487;50.892;6.906;2023-07-02T13:10:33;17.40;;;11.60;;
18716;SDS011;9487;50.892;6.906;2023-07-02T13:13:00;17.73;;;11.70;;
18716;SDS011;9487;50.892;6.906;2023-07-02T13:15:29;16.90;;;11.50;;
18716;SDS011;9487;50.892;6.906;2023-07-02T13:17:56;17.80;;;12.13;;
18716;SDS011;9487;50.892;6.906;2023-07-02T13:20:23;16.20;;;11.57;;
18716;SDS011;9487;50.892;6.906;2023-07-02T13:22:50;18.90;;;11.83;;
18716;SDS011;9487;50.892;6.906;2023-07-02T13:25:17;17.40;;;11.63;;
18716;SDS011;9487;50.892;6.906;2023-07-02T13:27:44;17.67;;;11.23;;
18716;SDS011;9487;50.892;6.906;2023-07-02T13:30:11;18.47;;;12.27;;
18716;SDS011;9487;50.892;6.906;2023-07-02T13:32:40;16.17;;;12.13;;
18716;SDS011;9487;50.892;6.906;2023-07-02T13:35:07;17.07;;;11.47;;
18716;SDS011;9487;50.892;6.906;2023-07-02T13:37:34;20.67;;;12.63;;
18716;SDS011;9487;50.892;6.906;2023-07-02T13:40:01;17.23;;;11.63;;
18716;SDS011;9487;50.892;6.906;2023-07-02T13:42:29;15.83;;;11.40;;
18716;SDS011;9487;50.892;6.906;2023-07-02T13:44:56;16.67;;;11.83;;
18716;SDS011;9487;50.892;6.906;2023-07-02T13:47:22;17.97;;;12.43;;
18716;SDS011;9487;50.892;6.906;2023-07-02T13:49:51;18.53;;;12.27;;
18716;SDS011;9487;50.892;6.906;2023-07-02T13:52:18;18.87;;;11.60;;
18716;SDS011;9487;50.892;6.906;2023-07-02T13:54:45;20.33;;;12.00;;
18716;SDS011;9487;50.892;6.906;2023-07-02T13:57:12;18.73;;;12.07;;
18716;SDS011;9487;50.892;6.906;2023-07-02T13:59:41;16.83;;;11.33;;
18716;SDS011;9487;50.892;6.906;2023-07-02T14:02:08;16.50;;;11.80;;
18716;SDS011;9487;50.892;6.906;2023-07-02T14:04:35;20.43;;;11.93;;
18716;SDS011;9487;50.892;6.906;2023-07-02T14:07:02;18.67;;;12.37;;
18716;SDS011;9487;50.892;6.906;2023-07-02T14:09:30;14.57;;;11.07;;
18716;SDS011;9487;50.892;6.906;2023-07-02T14:11:57;17.23;;;11.07;;
18716;SDS011;9487;50.892;6.906;2023-07-02T14:14:24;15.33;;;11.43;;
18716;SDS011;9487;50.892;6.906;2023-07-02T14:16:52;18.80;;;12.00;;
18716;SDS011;9487;50.892;6.906;2023-07-02T14:19:19;21.70;;;12.30;;
18716;SDS011;9487;50.892;6.906;2023-07-02T14:21:46;16.20;;;11.30;;
18716;SDS011;9487;50.892;6.906;2023-07-02T14:24:14;16.20;;;11.27;;
18716;SDS011;9487;50.892;6.906;2023-07-02T14:26:41;16.80;;;11.87;;
18716;SDS011;9487;50.892;6.906;2023-07-02T14:29:08;19.60;;;12.13;;
18716;SDS011;9487;50.892;6.906;2023-07-02T14:31:35;14.47;;;11.60;;
18716;SDS011;9487;50.892;6.906;2023-07-02T14:34:04;16.60;;;11.67;;
18716;SDS011;9487;50.892;6.906;2023-07-02T14:36:31;16.40;;;11.87;;
18716;SDS011;9487;50.892;6.906;2023-07-02T14:38:58;17.40;;;12.50;;
18716;SDS011;9487;50.892;6.906;2023-07-02T14:41:24;16.73;;;11.73;;
18716;SDS011;9487;50.892;6.906;2023-07-02T14:43:52;17.23;;;11.30;;